createdAt,value
2023-04-27T00:03:06.310Z,100703.41
2023-04-27T00:08:09.128Z,100696.38
2023-04-27T00:13:11.149Z,100699.66
2023-04-27T00:18:13.156Z,100706.56
2023-04-27T00:23:15.170Z,100702.94
2023-04-27T00:28:17.085Z,100708.94
2023-04-27T00:33:19.064Z,100714.09
2023-04-27T00:38:21.161Z,100715.69
2023-04-27T00:43:23.131Z,100716.38
2023-04-27T00:48:25.865Z,100719.75
2023-04-27T00:53:27.869Z,100719.63
2023-04-27T00:58:29.816Z,100721.19
2023-04-27T01:03:32.676Z,100726.31
2023-04-27T01:08:34.810Z,100716.50
2023-04-27T01:13:36.746Z,100719.88
2023-04-27T01:18:40.883Z,100725.00
2023-04-27T01:23:42.843Z,100725.72
2023-04-27T01:28:44.974Z,100725.53
2023-04-27T01:33:46.968Z,100730.72
2023-04-27T01:38:49.043Z,100722.66
2023-04-27T01:43:51.096Z,100725.19
2023-04-27T01:48:53.141Z,100723.31
2023-04-27T01:53:55.155Z,100728.41
2023-04-27T01:58:57.130Z,100720.34
2023-04-27T02:03:59.398Z,100728.06
2023-04-27T02:09:01.616Z,100731.44
2023-04-27T02:14:03.767Z,100726.94
2023-04-27T02:19:05.751Z,100736.41
2023-04-27T02:24:07.739Z,100731.84
2023-04-27T02:29:09.625Z,100729.97
2023-04-27T02:34:12.218Z,100734.19
2023-04-27T02:39:14.390Z,100736.72
2023-04-27T02:44:16.487Z,100740.94
2023-04-27T02:49:18.438Z,100740.72
2023-04-27T02:54:20.387Z,100740.59
2023-04-27T02:59:22.395Z,100740.50
2023-04-27T03:04:24.435Z,100756.94
2023-04-27T03:09:26.490Z,100762.88
2023-04-27T03:14:28.573Z,100761.00
2023-04-27T03:19:30.690Z,100764.34
2023-04-27T03:24:33.522Z,100761.59
2023-04-27T03:29:35.478Z,100767.56
2023-04-27T03:34:37.485Z,100768.34
2023-04-27T03:39:39.508Z,100772.59
2023-04-27T03:44:41.609Z,100762.00
2023-04-27T03:49:43.566Z,100769.81
2023-04-27T03:54:45.870Z,100769.72
2023-04-27T03:59:47.846Z,100777.56
2023-04-27T04:04:49.994Z,100781.06
2023-04-27T04:09:52.078Z,100787.13
2023-04-27T04:14:54.122Z,100788.91
2023-04-27T04:19:56.200Z,100798.72
2023-04-27T04:24:58.217Z,100800.72
2023-04-27T04:30:01.064Z,100800.28
2023-04-27T04:35:04.083Z,100806.78
2023-04-27T04:40:09.339Z,100805.41
2023-04-27T04:45:11.536Z,100806.78
2023-04-27T04:50:13.653Z,100817.28
2023-04-27T04:55:15.827Z,100810.22
2023-04-27T05:00:18.401Z,100806.53
2023-04-27T05:05:20.554Z,100808.81
2023-04-27T05:10:22.611Z,100810.19
2023-04-27T05:15:24.642Z,100819.56
2023-04-27T05:20:26.590Z,100821.56
2023-04-27T05:25:32.559Z,100829.56
2023-04-27T05:30:34.966Z,100824.25
2023-04-27T05:35:37.102Z,100838.09
2023-04-27T05:40:39.164Z,100837.38
2023-04-27T05:45:41.991Z,100835.53
2023-04-27T05:50:44.566Z,100843.41
2023-04-27T05:55:46.508Z,100847.56
2023-04-27T06:00:48.560Z,100855.31
2023-04-27T06:06:00.628Z,100855.78
2023-04-27T06:11:04.379Z,100858.88
2023-04-27T06:16:07.178Z,100845.03
2023-04-27T06:21:09.298Z,100852.28
2023-04-27T06:26:11.669Z,100855.97
2023-04-27T06:31:13.816Z,100863.13
2023-04-27T06:36:16.017Z,100868.47
2023-04-27T06:41:18.341Z,100869.38
2023-04-27T06:46:21.260Z,100867.59
2023-04-27T06:51:23.657Z,100856.00
2023-04-27T06:56:25.726Z,100855.84
2023-04-27T07:01:27.697Z,100856.56
2023-04-27T07:06:29.783Z,100856.25
2023-04-27T07:11:32.156Z,100854.28
2023-04-27T07:16:34.208Z,100850.44
2023-04-27T07:21:36.488Z,100847.00
2023-04-27T07:26:38.588Z,100851.22
2023-04-27T07:31:40.604Z,100858.56
2023-04-27T07:36:43.221Z,100849.94
2023-04-27T07:41:45.205Z,100859.59
2023-04-27T07:46:49.232Z,100855.56
2023-04-27T07:51:51.738Z,100853.91
2023-04-27T07:56:54.399Z,100857.81
2023-04-27T08:02:07.013Z,100858.41
2023-04-27T08:07:13.364Z,100861.56
2023-04-27T08:12:16.321Z,100862.31
2023-04-27T08:17:18.908Z,100862.31
2023-04-27T08:22:21.058Z,100862.88
2023-04-27T08:27:23.041Z,100866.47
2023-04-27T08:32:25.127Z,100861.53
2023-04-27T08:37:27.207Z,100866.81
2023-04-27T08:42:31.007Z,100865.94
2023-04-27T08:47:42.576Z,100860.91
2023-04-27T08:52:47.498Z,100866.16
2023-04-27T08:58:00.638Z,100853.41
2023-04-27T09:03:04.575Z,100861.34
2023-04-27T09:08:08.398Z,100853.13
2023-04-27T09:13:10.398Z,100851.84
2023-04-27T09:18:20.648Z,100861.81
2023-04-27T09:23:33.904Z,100865.06
2023-04-27T09:28:38.297Z,100864.59
2023-04-27T09:33:40.442Z,100859.81
2023-04-27T09:38:43.033Z,100860.22
2023-04-27T09:43:48.690Z,100863.41
2023-04-27T09:48:53.144Z,100865.41
2023-04-27T09:54:00.562Z,100872.81
2023-04-27T09:59:10.114Z,100877.06
2023-04-27T10:04:38.472Z,100872.28
2023-04-27T10:09:47.103Z,100876.06
2023-04-27T10:14:57.549Z,100877.06
2023-04-27T10:20:04.980Z,100876.31
2023-04-27T10:25:13.850Z,100882.53
2023-04-27T10:30:19.277Z,100877.50
2023-04-27T10:35:23.811Z,100881.94
2023-04-27T10:40:34.358Z,100877.53
2023-04-27T10:45:36.690Z,100884.78
2023-04-27T10:50:38.764Z,100889.59
2023-04-27T10:55:40.785Z,100886.25
2023-04-27T11:00:45.249Z,100884.78
2023-04-27T11:05:50.955Z,100884.03
2023-04-27T11:10:53.558Z,100892.94
2023-04-27T11:15:58.358Z,100893.84
2023-04-27T11:21:15.621Z,100890.56
2023-04-27T11:26:27.186Z,100886.59
2023-04-27T11:31:44.557Z,100888.84
2023-04-27T11:42:16.898Z,100894.25
2023-04-27T11:47:19.757Z,100889.13
2023-04-27T11:52:24.297Z,100882.75
2023-04-27T11:57:32.770Z,100889.75
2023-04-27T12:02:35.018Z,100888.75
2023-04-27T12:07:37.139Z,100898.53
2023-04-27T12:12:39.167Z,100889.84
2023-04-27T12:17:41.924Z,100893.50
2023-04-27T12:22:43.978Z,100890.00
2023-04-27T12:27:48.299Z,100887.44
2023-04-27T12:32:50.878Z,100890.03
2023-04-27T12:37:52.979Z,100885.44
2023-04-27T12:42:55.299Z,100879.91
2023-04-27T12:48:02.546Z,100877.88
2023-04-27T12:53:05.287Z,100880.22
2023-04-27T12:58:07.908Z,100882.56
2023-04-27T13:03:10.106Z,100875.19
2023-04-27T13:08:12.492Z,100882.16
2023-04-27T13:13:14.576Z,100879.31
2023-04-27T13:18:23.458Z,100886.41
2023-04-27T13:23:32.262Z,100901.50
2023-04-27T13:28:34.890Z,100898.91
2023-04-27T13:33:42.764Z,100899.84
2023-04-27T13:38:44.895Z,100893.63
2023-04-27T13:43:48.276Z,100889.13
2023-04-27T13:48:50.673Z,100889.00
2023-04-27T13:53:52.627Z,100896.91
2023-04-27T13:58:54.702Z,100897.78
2023-04-27T14:04:03.952Z,100892.22
2023-04-27T14:09:09.906Z,100915.00
2023-04-27T14:14:17.222Z,100920.28
2023-04-27T14:19:20.949Z,100911.34
2023-04-27T14:24:23.488Z,100908.69
2023-04-27T14:29:26.093Z,100909.66
2023-04-27T14:34:28.487Z,100918.78
2023-04-27T14:39:30.900Z,100920.84
2023-04-27T14:50:05.638Z,100927.56
2023-04-27T14:55:08.779Z,100936.66
2023-04-27T15:00:14.873Z,100933.31
2023-04-27T15:05:17.080Z,100939.69
2023-04-27T15:10:19.241Z,100946.94
2023-04-27T15:15:21.532Z,100953.38
2023-04-27T15:20:23.566Z,100959.75
2023-04-27T15:25:25.969Z,100954.63
2023-04-27T15:30:28.417Z,100956.56
2023-04-27T15:35:34.599Z,100972.78
2023-04-27T15:40:39.885Z,100960.44
2023-04-27T15:45:54.112Z,100965.03
2023-04-27T15:51:10.165Z,100965.06
2023-04-27T15:56:13.055Z,100958.94
2023-04-27T16:01:15.420Z,100960.84
2023-04-27T16:06:18.089Z,100951.13
2023-04-27T16:11:21.284Z,100946.75
2023-04-27T16:16:23.971Z,100954.81
2023-04-27T16:21:27.525Z,100954.88
2023-04-27T16:26:30.152Z,100961.16
2023-04-27T16:31:32.276Z,100954.13
2023-04-27T16:36:34.662Z,100958.66
2023-04-27T16:41:36.870Z,100963.16
2023-04-27T16:46:38.948Z,100965.00
2023-04-27T16:51:41.227Z,100971.31
2023-04-27T16:56:43.486Z,100970.53
2023-04-27T17:01:45.843Z,100974.16
2023-04-27T17:07:01.966Z,100971.56
2023-04-27T17:12:11.213Z,100977.84
2023-04-27T17:17:14.300Z,100973.44
2023-04-27T17:22:17.838Z,100968.19
2023-04-27T17:27:20.228Z,100975.34
2023-04-27T17:32:23.171Z,100981.59
2023-04-27T17:37:25.693Z,100979.88
2023-04-27T17:42:28.701Z,100985.28
2023-04-27T17:47:31.535Z,100984.44
2023-04-27T17:52:34.125Z,100989.78
2023-04-27T17:57:37.624Z,100982.72
2023-04-27T18:02:40.304Z,100991.63
2023-04-27T18:07:43.168Z,100997.84
2023-04-27T18:12:45.522Z,101011.13
2023-04-27T18:17:47.825Z,101012.06
2023-04-27T18:22:49.926Z,101014.69
2023-04-27T18:27:55.866Z,101019.09
2023-04-27T18:32:58.368Z,101024.38
2023-04-27T18:38:10.844Z,101027.00
2023-04-27T18:43:16.824Z,101028.72
2023-04-27T18:48:23.031Z,101031.38
2023-04-27T18:53:26.287Z,101031.31
2023-04-27T18:58:30.921Z,101034.78
2023-04-27T19:03:34.062Z,101039.13
2023-04-27T19:08:36.639Z,101038.16
2023-04-27T19:13:41.507Z,101038.06
2023-04-27T19:18:44.270Z,101053.91
2023-04-27T19:23:46.860Z,101052.91
2023-04-27T19:28:51.639Z,101049.25
2023-04-27T19:33:55.433Z,101049.06
2023-04-27T19:38:59.321Z,101054.22
2023-04-27T19:44:11.588Z,101053.19
2023-04-27T19:49:14.240Z,101062.72
2023-04-27T19:54:18.424Z,101057.25
2023-04-27T19:59:21.710Z,101062.38
2023-04-27T20:04:26.910Z,101063.06
2023-04-27T20:09:35.165Z,101073.41
2023-04-27T20:14:42.811Z,101076.72
2023-04-27T20:19:46.628Z,101081.84
2023-04-27T20:24:48.676Z,101082.50
2023-04-27T20:29:51.078Z,101087.63
2023-04-27T20:34:53.611Z,101092.72
2023-04-27T20:39:56.305Z,101091.59
2023-04-27T20:44:58.414Z,101090.56
2023-04-27T20:50:00.340Z,101090.38
2023-04-27T20:55:05.752Z,101086.69
2023-04-27T21:05:55.444Z,101095.03
2023-04-27T21:10:59.874Z,101088.66
2023-04-27T21:16:03.290Z,101093.69
2023-04-27T21:21:06.112Z,101093.44
2023-04-27T21:26:09.255Z,101101.09
2023-04-27T21:31:11.365Z,101099.06
2023-04-27T21:36:17.880Z,101110.31
2023-04-27T21:41:22.950Z,101109.13
2023-04-27T21:46:24.928Z,101115.00
2023-04-27T21:51:26.942Z,101124.50
2023-04-27T21:56:29.139Z,101114.59
2023-04-27T22:01:31.305Z,101123.13
2023-04-27T22:06:33.779Z,101125.53
2023-04-27T22:11:35.899Z,101115.50
2023-04-27T22:16:38.951Z,101122.38
2023-04-27T22:21:41.160Z,101117.81
2023-04-27T22:26:45.943Z,101119.25
2023-04-27T22:31:48.125Z,101122.66
2023-04-27T22:36:50.272Z,101125.09
2023-04-27T22:41:52.166Z,101119.75
2023-04-27T22:46:55.670Z,101119.41
2023-04-27T22:51:58.017Z,101124.53
2023-04-27T22:57:00.051Z,101114.09
2023-04-27T23:02:02.069Z,101118.50
2023-04-27T23:07:04.151Z,101118.44
2023-04-27T23:12:07.982Z,101122.53
2023-04-27T23:17:10.556Z,101119.78
2023-04-27T23:22:12.594Z,101122.19
2023-04-27T23:27:14.547Z,101124.59
2023-04-27T23:32:17.230Z,101120.84
2023-04-27T23:37:19.105Z,101122.34
2023-04-27T23:42:21.098Z,101126.47
2023-04-27T23:47:23.249Z,101127.09
2023-04-27T23:52:25.186Z,101125.97
2023-04-27T23:57:27.283Z,101123.03
